Time,TemperatureF,DewpointF,PressureIn,WindDirection,WindDirectionDegrees,WindSpeedMPH,WindSpeedGustMPH,Humidity,HourlyPrecipIn,Conditions,Clouds,dailyrainin,SoftwareType,DateUTC
2013-10-27 00:03:00,42.3,35.0,29.80,WNW,295,14.0,22.0,76,0.00,,,0.00,weatherlink.com 1.10,2013-10-27 04:03:00,
2013-10-27 00:19:00,41.7,36.0,29.79,WNW,292,9.0,14.0,79,0.00,,,0.00,weatherlink.com 1.10,2013-10-27 04:19:00,
2013-10-27 00:34:00,41.4,36.0,29.79,West,267,4.0,15.0,80,0.00,,,0.00,weatherlink.com 1.10,2013-10-27 04:34:00,
2013-10-27 00:49:00,41.0,36.0,29.79,WNW,301,9.0,14.0,81,0.00,,,0.00,weatherlink.com 1.10,2013-10-27 04:49:00,
2013-10-27 01:04:00,40.6,36.0,29.79,WSW,252,9.0,12.0,83,0.00,,,0.00,weatherlink.com 1.10,2013-10-27 05:04:00,
2013-10-27 01:19:00,40.6,36.0,29.80,West,276,7.0,11.0,83,0.00,,,0.00,weatherlink.com 1.10,2013-10-27 05:19:00,
2013-10-27 01:34:00,40.6,36.0,29.80,West,263,4.0,13.0,84,0.00,,,0.00,weatherlink.com 1.10,2013-10-27 05:34:00,
2013-10-27 01:49:00,40.4,36.0,29.80,WSW,257,10.0,14.0,85,0.00,,,0.00,weatherlink.com 1.10,2013-10-27 05:49:00,
2013-10-27 02:04:00,40.7,36.0,29.80,West,276,4.0,11.0,84,0.00,,,0.00,weatherlink.com 1.10,2013-10-27 06:04:00,
2013-10-27 02:19:00,40.8,36.0,29.80,NW,314,8.0,15.0,84,0.00,,,0.00,weatherlink.com 1.10,2013-10-27 06:19:00,
2013-10-27 02:49:00,41.7,37.0,29.81,WNW,288,7.0,20.0,83,0.00,,,0.00,weatherlink.com 1.10,2013-10-27 06:49:00,
2013-10-27 03:04:00,41.7,37.0,29.81,WNW,291,8.0,14.0,83,0.00,,,0.00,weatherlink.com 1.10,2013-10-27 07:04:00,
2013-10-27 03:19:00,41.7,37.0,29.82,West,274,9.0,18.0,83,0.00,,,0.00,weatherlink.com 1.10,2013-10-27 07:19:00,
2013-10-27 03:34:00,41.5,37.0,29.82,WNW,283,7.0,17.0,83,0.00,,,0.00,weatherlink.com 1.10,2013-10-27 07:34:00,
2013-10-27 03:49:00,41.5,37.0,29.82,WNW,298,9.0,15.0,84,0.00,,,0.00,weatherlink.com 1.10,2013-10-27 07:49:00,
2013-10-27 04:04:00,41.5,37.0,29.82,West,269,12.0,16.0,84,0.00,,,0.00,weatherlink.com 1.10,2013-10-27 08:04:00,
2013-10-27 04:19:00,41.3,37.0,29.82,West,280,6.0,14.0,85,0.00,,,0.00,weatherlink.com 1.10,2013-10-27 08:19:00,
2013-10-27 04:34:00,40.8,37.0,29.83,West,272,10.0,11.0,86,0.00,,,0.00,weatherlink.com 1.10,2013-10-27 08:34:00,
2013-10-27 04:49:00,40.8,37.0,29.84,West,259,5.0,13.0,86,0.00,,,0.00,weatherlink.com 1.10,2013-10-27 08:49:00,
2013-10-27 05:04:00,40.9,37.0,29.84,West,272,7.0,12.0,86,0.00,,,0.00,weatherlink.com 1.10,2013-10-27 09:04:00,
2013-10-27 05:19:00,40.8,37.0,29.85,WSW,249,9.0,15.0,85,0.00,,,0.00,weatherlink.com 1.10,2013-10-27 09:19:00,
2013-10-27 05:34:00,40.5,37.0,29.86,WNW,301,8.0,12.0,86,0.00,,,0.00,weatherlink.com 1.10,2013-10-27 09:34:00,
2013-10-27 05:49:00,39.9,36.0,29.86,WNW,285,7.0,15.0,87,0.00,,,0.00,weatherlink.com 1.10,2013-10-27 09:49:00,
2013-10-27 06:04:00,39.3,36.0,29.87,WNW,290,7.0,11.0,87,0.00,,,0.00,weatherlink.com 1.10,2013-10-27 10:04:00,
2013-10-27 06:19:00,38.7,36.0,29.87,WNW,290,4.0,9.0,89,0.00,,,0.00,weatherlink.com 1.10,2013-10-27 10:19:00,
2013-10-27 06:34:00,38.2,35.0,29.87,West,267,3.0,7.0,89,0.00,,,0.00,weatherlink.com 1.10,2013-10-27 10:34:00,
2013-10-27 06:49:00,38.0,35.0,29.88,WNW,283,5.0,8.0,90,0.00,,,0.00,weatherlink.com 1.10,2013-10-27 10:49:00,
2013-10-27 07:04:00,37.8,35.0,29.89,West,279,3.0,7.0,90,0.00,,,0.00,weatherlink.com 1.10,2013-10-27 11:04:00,
2013-10-27 07:19:00,37.5,35.0,29.89,West,275,7.0,9.0,90,0.00,,,0.00,weatherlink.com 1.10,2013-10-27 11:19:00,
2013-10-27 07:34:00,37.4,35.0,29.90,WSW,255,5.0,7.0,91,0.00,,,0.00,weatherlink.com 1.10,2013-10-27 11:34:00,
2013-10-27 07:50:00,37.2,35.0,29.91,WNW,289,5.0,8.0,90,0.00,,,0.00,weatherlink.com 1.10,2013-10-27 11:50:00,
2013-10-27 08:06:00,37.5,35.0,29.91,WNW,288,3.0,7.0,91,0.00,,,0.00,weatherlink.com 1.10,2013-10-27 12:06:00,
2013-10-27 08:20:00,38.0,35.0,29.91,West,267,2.0,8.0,90,0.00,,,0.00,weatherlink.com 1.10,2013-10-27 12:20:00,
2013-10-27 08:35:00,38.6,36.0,29.92,West,274,4.0,9.0,89,0.00,,,0.00,weatherlink.com 1.10,2013-10-27 12:35:00,
2013-10-27 08:50:00,38.6,36.0,29.93,WNW,290,4.0,9.0,89,0.00,,,0.00,weatherlink.com 1.10,2013-10-27 12:50:00,
2013-10-27 09:05:00,39.5,36.0,29.94,WNW,292,5.0,7.0,88,0.00,,,0.00,weatherlink.com 1.10,2013-10-27 13:05:00,
2013-10-27 09:21:00,41.1,37.0,29.94,WNW,286,6.0,10.0,86,0.00,,,0.00,weatherlink.com 1.10,2013-10-27 13:21:00,
2013-10-27 09:35:00,41.7,37.0,29.94,WSW,257,5.0,12.0,84,0.00,,,0.00,weatherlink.com 1.10,2013-10-27 13:35:00,
2013-10-27 09:50:00,42.2,37.0,29.95,West,281,12.0,12.0,81,0.00,,,0.00,weatherlink.com 1.10,2013-10-27 13:50:00,
2013-10-27 10:05:00,42.3,37.0,29.95,WNW,283,5.0,12.0,80,0.00,,,0.00,weatherlink.com 1.10,2013-10-27 14:05:00,
2013-10-27 10:20:00,42.7,37.0,29.95,West,281,7.0,12.0,79,0.00,,,0.00,weatherlink.com 1.10,2013-10-27 14:20:00,
2013-10-27 10:35:00,42.9,36.0,29.95,WNW,297,7.0,13.0,76,0.00,,,0.00,weatherlink.com 1.10,2013-10-27 14:35:00,
2013-10-27 10:50:00,43.0,36.0,29.95,West,263,8.0,14.0,75,0.00,,,0.00,weatherlink.com 1.10,2013-10-27 14:50:00,
2013-10-27 11:05:00,43.2,36.0,29.95,WNW,302,9.0,13.0,75,0.00,,,0.00,weatherlink.com 1.10,2013-10-27 15:05:00,
2013-10-27 11:20:00,44.1,36.0,29.96,WNW,294,8.0,14.0,72,0.00,,,0.00,weatherlink.com 1.10,2013-10-27 15:20:00,
2013-10-27 11:35:00,44.6,35.0,29.96,WNW,292,16.0,18.0,68,0.00,,,0.00,weatherlink.com 1.10,2013-10-27 15:35:00,
2013-10-27 11:50:00,45.3,35.0,29.96,WNW,284,11.0,15.0,68,0.00,,,0.00,weatherlink.com 1.10,2013-10-27 15:50:00,
2013-10-27 12:05:00,45.6,35.0,29.97,WNW,289,3.0,18.0,66,0.00,,,0.00,weatherlink.com 1.10,2013-10-27 16:05:00,
2013-10-27 12:20:00,45.7,34.0,29.97,NW,320,12.0,16.0,65,0.00,,,0.00,weatherlink.com 1.10,2013-10-27 16:20:00,
2013-10-27 12:35:00,45.7,32.0,29.97,WNW,302,5.0,18.0,60,0.00,,,0.00,weatherlink.com 1.10,2013-10-27 16:35:00,
2013-10-27 12:50:00,46.1,34.0,29.97,WNW,302,10.0,15.0,63,0.00,,,0.00,weatherlink.com 1.10,2013-10-27 16:50:00,
2013-10-27 13:05:00,46.2,34.0,29.96,WNW,288,9.0,16.0,62,0.00,,,0.00,weatherlink.com 1.10,2013-10-27 17:05:00,
2013-10-27 13:20:00,46.2,32.0,29.96,WNW,287,12.0,16.0,59,0.00,,,0.00,weatherlink.com 1.10,2013-10-27 17:20:00,
2013-10-27 13:35:00,47.8,35.0,29.96,NW,324,8.0,16.0,61,0.00,,,0.00,weatherlink.com 1.10,2013-10-27 17:35:00,
2013-10-27 13:50:00,47.4,34.0,29.96,NW,308,5.0,12.0,60,0.00,,,0.00,weatherlink.com 1.10,2013-10-27 17:50:00,
2013-10-27 14:05:00,46.6,36.0,29.95,NW,323,4.0,7.0,68,0.00,,,0.00,weatherlink.com 1.10,2013-10-27 18:05:00,
2013-10-27 14:20:00,45.8,37.0,29.96,NW,324,2.0,6.0,71,0.00,,,0.00,weatherlink.com 1.10,2013-10-27 18:20:00,
2013-10-27 14:35:00,45.5,37.0,29.96,NW,326,3.0,5.0,71,0.00,,,0.00,weatherlink.com 1.10,2013-10-27 18:35:00,
2013-10-27 14:50:00,45.6,36.0,29.96,NW,304,5.0,6.0,70,0.00,,,0.00,weatherlink.com 1.10,2013-10-27 18:50:00,
2013-10-27 15:20:00,45.7,37.0,29.96,WNW,303,3.0,7.0,71,0.00,,,0.00,weatherlink.com 1.10,2013-10-27 19:20:00,
2013-10-27 15:35:00,45.9,36.0,29.97,West,276,2.0,9.0,68,0.00,,,0.00,weatherlink.com 1.10,2013-10-27 19:35:00,
2013-10-27 15:50:00,45.9,36.0,29.98,West,277,10.0,10.0,69,0.00,,,0.00,weatherlink.com 1.10,2013-10-27 19:50:00,
2013-10-27 16:05:00,45.7,34.0,29.98,WNW,287,9.0,14.0,65,0.00,,,0.00,weatherlink.com 1.10,2013-10-27 20:05:00,
2013-10-27 16:20:00,45.5,36.0,29.98,NW,314,1.0,10.0,70,0.00,,,0.00,weatherlink.com 1.10,2013-10-27 20:20:00,
2013-10-27 16:35:00,45.4,35.0,29.98,WNW,303,3.0,9.0,68,0.00,,,0.00,weatherlink.com 1.10,2013-10-27 20:35:00,
2013-10-27 16:50:00,45.3,36.0,29.98,WNW,288,3.0,7.0,70,0.00,,,0.00,weatherlink.com 1.10,2013-10-27 20:50:00,
2013-10-27 17:05:00,44.8,36.0,29.99,NW,309,4.0,5.0,71,0.00,,,0.00,weatherlink.com 1.10,2013-10-27 21:05:00,
2013-10-27 17:20:00,44.6,36.0,29.99,WNW,284,4.0,6.0,73,0.00,,,0.00,weatherlink.com 1.10,2013-10-27 21:20:00,
2013-10-27 17:35:00,44.5,36.0,29.99,WNW,286,2.0,4.0,71,0.00,,,0.00,weatherlink.com 1.10,2013-10-27 21:35:00,
2013-10-27 17:50:00,44.3,35.0,30.00,WNW,290,2.0,5.0,71,0.00,,,0.00,weatherlink.com 1.10,2013-10-27 21:50:00,
2013-10-27 18:05:00,43.7,35.0,30.00,WNW,286,2.0,4.0,72,0.00,,,0.00,weatherlink.com 1.10,2013-10-27 22:05:00,
2013-10-27 18:21:00,43.3,35.0,30.01,WNW,283,0.0,2.0,73,0.00,,,0.00,weatherlink.com 1.10,2013-10-27 22:21:00,
2013-10-27 18:36:00,42.9,35.0,30.01,West,260,1.0,2.0,74,0.00,,,0.00,weatherlink.com 1.10,2013-10-27 22:36:00,
2013-10-27 18:51:00,42.9,35.0,30.02,West,279,1.0,3.0,74,0.00,,,0.00,weatherlink.com 1.10,2013-10-27 22:51:00,
2013-10-27 19:06:00,42.8,35.0,30.02,West,261,3.0,4.0,75,0.00,,,0.00,weatherlink.com 1.10,2013-10-27 23:06:00,
2013-10-27 19:21:00,43.1,35.0,30.02,SSW,211,4.0,7.0,73,0.00,,,0.00,weatherlink.com 1.10,2013-10-27 23:21:00,
2013-10-27 19:36:00,43.1,35.0,30.02,West,267,3.0,8.0,73,0.00,,,0.00,weatherlink.com 1.10,2013-10-27 23:36:00,
2013-10-27 19:51:00,43.1,35.0,30.02,West,267,5.0,7.0,72,0.00,,,0.00,weatherlink.com 1.10,2013-10-27 23:51:00,
2013-10-27 20:06:00,42.9,34.0,30.02,West,262,1.0,6.0,72,0.00,,,0.00,weatherlink.com 1.10,2013-10-28 00:06:00,
2013-10-27 20:21:00,42.4,34.0,30.02,West,267,3.0,6.0,72,0.00,,,0.00,weatherlink.com 1.10,2013-10-28 00:21:00,
2013-10-27 20:36:00,41.3,34.0,30.02,West,262,2.0,5.0,74,0.00,,,0.00,weatherlink.com 1.10,2013-10-28 00:36:00,
2013-10-27 20:51:00,40.5,33.0,30.03,West,261,2.0,6.0,75,0.00,,,0.00,weatherlink.com 1.10,2013-10-28 00:51:00,
2013-10-27 21:06:00,40.7,34.0,30.03,West,260,2.0,6.0,76,0.00,,,0.00,weatherlink.com 1.10,2013-10-28 01:06:00,
2013-10-27 21:21:00,40.8,33.0,30.03,WSW,250,2.0,4.0,75,0.00,,,0.00,weatherlink.com 1.10,2013-10-28 01:21:00,
2013-10-27 21:36:00,39.9,33.0,30.04,WSW,253,2.0,4.0,76,0.00,,,0.00,weatherlink.com 1.10,2013-10-28 01:36:00,
2013-10-27 21:51:00,39.9,33.0,30.04,WSW,255,3.0,5.0,76,0.00,,,0.00,weatherlink.com 1.10,2013-10-28 01:51:00,
2013-10-27 22:06:00,40.1,33.0,30.04,WSW,250,2.0,4.0,75,0.00,,,0.00,weatherlink.com 1.10,2013-10-28 02:06:00,
2013-10-27 22:21:00,40.5,33.0,30.04,WSW,254,1.0,4.0,75,0.00,,,0.00,weatherlink.com 1.10,2013-10-28 02:21:00,
2013-10-27 22:36:00,40.6,33.0,30.05,West,264,2.0,2.0,75,0.00,,,0.00,weatherlink.com 1.10,2013-10-28 02:36:00,
2013-10-27 22:51:00,40.1,33.0,30.05,West,272,0.0,2.0,76,0.00,,,0.00,weatherlink.com 1.10,2013-10-28 02:51:00,
2013-10-27 23:06:00,39.5,33.0,30.05,West,264,1.0,2.0,77,0.00,,,0.00,weatherlink.com 1.10,2013-10-28 03:06:00,
2013-10-27 23:21:00,39.1,33.0,30.05,WSW,254,1.0,2.0,79,0.00,,,0.00,weatherlink.com 1.10,2013-10-28 03:21:00,
2013-10-27 23:36:00,39.4,33.0,30.04,West,262,1.0,2.0,79,0.00,,,0.00,weatherlink.com 1.10,2013-10-28 03:36:00,
2013-10-27 23:51:00,39.9,34.0,30.04,West,259,2.0,4.0,80,0.00,,,0.00,weatherlink.com 1.10,2013-10-28 03:51:00,